This is the latest recevied weather packets stored in our database for station/object WW5JC. If no packets are shown the sender has not sent any weather packets the latest 10 day(s).
| Time | Temp. | Humidity | Pressure | Rain* | Wind** | Luminosity | Snow |
|---|---|---|---|---|---|---|---|
| 1788455228 | 30.56° C | 67% | 1016.8 hPa | 0 mm | - | 459 W/m² | - |
| 1788454940 | 30.56° C | 67% | 1016.9 hPa | 0 mm | - | 167 W/m² | - |
| 1788454621 | 30.56° C | 67% | 1016.8 hPa | 0 mm | - | 253 W/m² | - |
| 1788454312 | 30.56° C | 68% | 1017 hPa | 0 mm | - | 267 W/m² | - |
| 1788454006 | 30.56° C | 68% | 1016.9 hPa | 0 mm | - | 201 W/m² | - |
| 1788453702 | 30° C | 69% | 1016.9 hPa | 0 mm | - | 188 W/m² | - |
| 1788453410 | 30° C | 68% | 1016.9 hPa | 0 mm | - | 226 W/m² | - |
| 1788453098 | 30° C | 68% | 1017 hPa | 0 mm | - | 172 W/m² | - |
| 1788452794 | 30° C | 69% | 1017.1 hPa | 0 mm | - | 172 W/m² | - |
| 1788452490 | 30.56° C | 69% | 1016.9 hPa | 0 mm | - | 135 W/m² | - |
| 1788452190 | 30.56° C | 69% | 1016.9 hPa | 0 mm | - | 188 W/m² | - |
| 1788451886 | 31.11° C | 68% | 1016.8 hPa | 0 mm | - | 216 W/m² | - |
| 1788451581 | 31.11° C | 67% | 1016.8 hPa | 0 mm | - | 648 W/m² | - |
| 1788451275 | 30.56° C | 69% | 1017 hPa | 0 mm | - | 629 W/m² | - |
| 1788450975 | 29.44° C | 72% | 1016.7 hPa | 0 mm | - | 405 W/m² | - |
| 1788450670 | 30° C | 72% | 1016.8 hPa | 0 mm | - | 158 W/m² | - |
| 1788450365 | 30.56° C | 70% | 1016.9 hPa | 0 mm | - | 270 W/m² | - |
| 1788450061 | 29.44° C | 73% | 1016.9 hPa | 0 mm | - | 378 W/m² | - |
| 1788449757 | 29.44° C | 73% | 1017 hPa | 0 mm | - | 231 W/m² | - |
| 1788449452 | 29.44° C | 74% | 1016.9 hPa | 0 mm | - | 144 W/m² | - |
| 1788449148 | 28.89° C | 75% | 1016.7 hPa | 0 mm | - | 173 W/m² | - |
| 1788448845 | 28.89° C | 75% | 1016.9 hPa | 0 mm | - | 175 W/m² | - |
| 1788448544 | 28.89° C | 75% | 1017.3 hPa | 0 mm | - | 298 W/m² | - |
| 1788448239 | 28.89° C | 75% | 1016.8 hPa | 0 mm | - | 210 W/m² | - |
| 1788447938 | 29.44° C | 75% | 1016.8 hPa | 0 mm | - | 252 W/m² | - |
* Rain latest hour (hover to see other rain measurements)
** Current wind speed in m/s (hover to see current wind gust speed)